This is the latest recevied weather packets stored in our database for station/object K7YVO. If no packets are shown the sender has not sent any weather packets the latest 10 day(s).
| Time | Temp. | Humidity | Pressure | Rain* | Wind** | Luminosity | Snow |
|---|---|---|---|---|---|---|---|
| 1777433329 | 10.56° C | 66% | 1024.7 hPa | 0 mm | - | 0 W/m² | - |
| 1777432726 | 10.56° C | 66% | 1024.5 hPa | 0 mm | - | 1 W/m² | - |
| 1777432118 | 11.11° C | 64% | 1024.4 hPa | 0 mm | - | 4 W/m² | - |
| 1777428778 | 13.89° C | 55% | 1024.3 hPa | 0 mm | - | 42 W/m² | - |
| 1777427259 | 13.33° C | 58% | 1024.3 hPa | 0 mm | - | 46 W/m² | - |
| 1777425741 | 13.89° C | 59% | 1024.3 hPa | 0 mm | - | 87 W/m² | - |
| 1777425132 | 13.89° C | 57% | 1024.3 hPa | 0 mm | - | 102 W/m² | - |
| 1777423921 | 14.44° C | 57% | 1024.4 hPa | 0 mm | - | 103 W/m² | - |
| 1777423004 | 13.89° C | 58% | 1024.5 hPa | 0 mm | - | 121 W/m² | - |
| 1777422699 | 13.89° C | 57% | 1024.4 hPa | 0 mm | - | 186 W/m² | - |
| 1777419060 | 13.89° C | 60% | 1024.6 hPa | 0 mm | - | 263 W/m² | - |
| 1777418759 | 13.33° C | 60% | 1024.6 hPa | 0 mm | - | 238 W/m² | - |
| 1777414510 | 13.33° C | 60% | 1025.1 hPa | 0 mm | - | 368 W/m² | - |
| 1777414209 | 13.33° C | 61% | 1025.1 hPa | 0 mm | - | 330 W/m² | - |
| 1777412084 | 13.89° C | 63% | 1025.6 hPa | 0 mm | - | 279 W/m² | - |
| 1777410873 | 12.22° C | 68% | 1025.5 hPa | 0 mm | - | 376 W/m² | - |
| 1777410272 | 11.67° C | 70% | 1025.6 hPa | 0 mm | - | 242 W/m² | - |
| 1777409663 | 11.67° C | 71% | 1025.5 hPa | 0 mm | - | 155 W/m² | - |
| 1777408752 | 11.67° C | 71% | 1025.6 hPa | 0 mm | - | 174 W/m² | - |
| 1777408448 | 11.67° C | 71% | 1025.6 hPa | 0 mm | - | 162 W/m² | - |
| 1777408142 | 11.67° C | 71% | 1025.5 hPa | 0 mm | - | 176 W/m² | - |
| 1777407535 | 11.67° C | 70% | 1025.6 hPa | 0 mm | - | 265 W/m² | - |
| 1777407229 | 12.22° C | 70% | 1025.7 hPa | 0 mm | - | 269 W/m² | - |
| 1777406315 | 11.11° C | 73% | 1025.7 hPa | 0 mm | - | 288 W/m² | - |
| 1777405104 | 11.11° C | 75% | 1025.7 hPa | 0 mm | - | 144 W/m² | - |
* Rain latest hour (hover to see other rain measurements)
** Current wind speed in m/s (hover to see current wind gust speed)